Time;durP1;ratioP1;P1;durP2;ratioP2;P2;SDS_P1;SDS_P2;PMS_P1;PMS_P2;Temp;Humidity;BMP_temperature;BMP_pressure;BME280_temperature;BME280_humidity;BME280_pressure;Samples;Min_cycle;Max_cycle;Signal;HPM_P1;HPM_P2
2022/04/20 00:00:15;;;;;;;8.20;4.57;;;;;;;8.14;60.34;101443.28;5058781;28;20056;-81
2022/04/20 00:02:41;;;;;;;7.60;4.53;;;;;;;8.12;60.50;101438.06;5028956;28;20046;-80
2022/04/20 00:05:07;;;;;;;6.23;5.03;;;;;;;8.09;60.74;101449.19;5026342;28;20463;-80
2022/04/20 00:07:33;;;;;;;8.40;4.97;;;;;;;8.00;60.89;101442.22;5026962;28;20037;-80
2022/04/20 00:09:59;;;;;;;8.23;4.90;;;;;;;7.98;61.29;101453.16;5026783;28;20145;-80
2022/04/20 00:12:25;;;;;;;7.60;4.50;;;;;;;7.92;61.09;101433.13;5026205;28;20045;-80
2022/04/20 00:14:50;;;;;;;7.90;4.90;;;;;;;7.93;61.17;101440.22;5026681;28;20482;-80
2022/04/20 00:17:15;;;;;;;7.13;5.20;;;;;;;7.89;61.34;101438.06;5058313;28;20485;-80
2022/04/20 00:19:41;;;;;;;6.03;5.17;;;;;;;7.87;61.46;101442.78;5057849;28;20469;-81
2022/04/20 00:22:07;;;;;;;8.43;5.07;;;;;;;7.83;61.63;101441.47;5026099;28;20480;-79
2022/04/20 00:24:32;;;;;;;8.07;5.00;;;;;;;7.79;61.82;101440.97;5026134;28;20043;-80
2022/04/20 00:26:57;;;;;;;6.43;5.07;;;;;;;7.73;62.43;101439.84;5025856;28;20042;-79
2022/04/20 00:29:23;;;;;;;9.03;5.10;;;;;;;7.72;62.48;101437.31;5033013;28;20037;-80
2022/04/20 00:31:48;;;;;;;6.80;5.10;;;;;;;7.69;62.23;101435.81;5032762;28;20037;-80
2022/04/20 00:34:13;;;;;;;8.73;5.40;;;;;;;7.70;62.34;101442.06;5025613;28;20579;-80
2022/04/20 00:36:39;;;;;;;8.47;5.10;;;;;;;7.69;62.73;101443.91;5025873;28;20052;-82
2022/04/20 00:39:04;;;;;;;9.13;5.27;;;;;;;7.59;63.29;101437.94;5026010;28;20036;-81
2022/04/20 00:41:30;;;;;;;10.90;5.57;;;;;;;7.54;64.24;101460.00;5057485;28;20048;-80
2022/04/20 00:43:55;;;;;;;7.73;5.30;;;;;;;7.42;63.89;101456.03;5057587;28;20749;-81
2022/04/20 00:46:23;;;;;;;9.07;5.50;;;;;;;7.40;64.23;101450.81;5025947;28;20694;-80
2022/04/20 00:48:51;;;;;;;10.90;6.40;;;;;;;7.17;66.29;101453.44;5025930;28;20411;-81
2022/04/20 00:51:17;;;;;;;9.37;5.40;;;;;;;7.23;64.24;101458.13;5023318;28;20452;-81
2022/04/20 00:53:42;;;;;;;7.50;5.73;;;;;;;7.13;66.99;101459.38;5040686;28;20151;-80
2022/04/20 00:56:08;;;;;;;7.57;5.40;;;;;;;7.15;64.43;101451.94;5025613;28;20631;-81
2022/04/20 00:58:35;;;;;;;10.50;5.50;;;;;;;7.18;65.15;101455.13;5025891;28;20527;-82
2022/04/20 01:01:01;;;;;;;7.77;5.23;;;;;;;7.23;63.13;101454.59;5024581;28;20110;-82
2022/04/20 01:03:27;;;;;;;7.93;4.87;;;;;;;7.41;62.26;101457.91;5057548;28;20545;-82
2022/04/20 01:05:52;;;;;;;6.73;4.83;;;;;;;7.46;61.90;101457.34;5039497;28;20038;-80
2022/04/20 01:08:18;;;;;;;7.43;4.80;;;;;;;7.52;61.76;101453.97;5025327;28;20026;-81
2022/04/20 01:10:43;;;;;;;8.87;4.70;;;;;;;7.58;61.31;101460.50;5025456;28;20331;-81
2022/04/20 01:13:10;;;;;;;6.07;4.50;;;;;;;7.68;60.52;101452.19;5025077;28;20039;-81
2022/04/20 01:15:35;;;;;;;6.47;4.70;;;;;;;7.73;60.03;101449.81;5023742;28;20152;-81
2022/04/20 01:18:13;;;;;;;7.90;4.87;;;;;;;7.74;60.04;101452.31;5025279;28;20052;-83
2022/04/20 01:20:38;;;;;;;7.30;4.70;;;;;;;7.80;59.84;101456.16;5032396;28;20285;-81
2022/04/20 01:23:04;;;;;;;7.63;4.93;;;;;;;7.79;59.29;101451.78;5056610;28;20602;-84
2022/04/20 01:25:29;;;;;;;9.73;5.10;;;;;;;7.85;59.43;101453.78;5043986;28;20045;-83
2022/04/20 01:27:55;;;;;;;7.17;4.63;;;;;;;7.83;59.84;101458.50;5025327;28;20059;-83
2022/04/20 01:30:20;;;;;;;7.57;4.90;;;;;;;7.79;59.64;101454.47;5056874;28;20045;-82
2022/04/20 01:32:45;;;;;;;7.47;5.13;;;;;;;7.80;59.92;101453.47;5024576;28;20037;-82
2022/04/20 01:35:11;;;;;;;7.87;5.10;;;;;;;7.81;59.11;101454.31;5024950;28;20539;-82
2022/04/20 01:37:36;;;;;;;6.70;4.70;;;;;;;7.79;59.16;101454.47;5040353;28;20056;-82
2022/04/20 01:40:02;;;;;;;8.93;5.00;;;;;;;7.79;58.98;101459.88;5026569;28;20625;-84
2022/04/20 01:42:27;;;;;;;7.53;4.80;;;;;;;7.78;58.63;101455.50;5019760;28;20187;-80
2022/04/20 01:44:52;;;;;;;8.23;4.70;;;;;;;7.74;59.35;101456.88;5024165;28;20557;-81
2022/04/20 01:47:18;;;;;;;6.27;4.70;;;;;;;7.70;59.59;101460.97;5015335;28;20048;-82
2022/04/20 01:49:43;;;;;;;11.10;4.90;;;;;;;7.63;60.07;101466.22;5024716;28;20033;-82
2022/04/20 01:52:09;;;;;;;6.80;4.73;;;;;;;7.61;59.35;101462.84;5024178;28;21374;-81
2022/04/20 01:54:34;;;;;;;6.40;4.70;;;;;;;7.59;58.96;101459.50;5024950;28;20124;-81
2022/04/20 01:57:00;;;;;;;8.10;4.60;;;;;;;7.58;59.08;101458.63;5009396;28;20047;-81
2022/04/20 01:59:25;;;;;;;7.67;4.90;;;;;;;7.56;59.16;101457.13;5023912;28;20041;-80
2022/04/20 02:04:34;;;;;;;6.57;4.70;;;;;;;7.51;59.14;101456.84;5051923;28;21806;-81
2022/04/20 02:07:00;;;;;;;9.63;5.03;;;;;;;7.53;58.17;101466.41;5055417;28;20049;-81
2022/04/20 02:09:25;;;;;;;8.40;4.80;;;;;;;7.48;58.65;101458.03;5024518;28;20610;-81
2022/04/20 02:11:51;;;;;;;6.83;4.63;;;;;;;7.51;58.46;101462.25;5024113;28;20049;-81
2022/04/20 02:14:16;;;;;;;7.03;4.50;;;;;;;7.49;58.59;101465.09;5023808;28;20037;-80
2022/04/20 02:16:42;;;;;;;7.83;4.67;;;;;;;7.42;57.83;101448.81;5024134;28;20060;-82
2022/04/20 02:19:07;;;;;;;6.07;4.40;;;;;;;7.42;58.32;101448.81;5056098;28;20447;-81
2022/04/20 02:21:32;;;;;;;8.27;4.90;;;;;;;7.40;58.25;101458.91;5055894;28;20534;-81
2022/04/20 02:23:58;;;;;;;7.40;4.60;;;;;;;7.38;58.59;101454.69;5055636;28;20036;-81
2022/04/20 02:26:23;;;;;;;8.00;4.77;;;;;;;7.30;59.05;101458.28;5024347;28;20041;-81
2022/04/20 02:28:49;;;;;;;6.23;4.73;;;;;;;7.27;58.58;101455.94;5023603;28;20048;-81
2022/04/20 02:31:14;;;;;;;6.00;4.60;;;;;;;7.25;58.98;101460.66;5024206;28;20059;-81
2022/04/20 02:33:40;;;;;;;6.73;4.83;;;;;;;7.20;58.72;101458.47;5024293;28;20182;-81
2022/04/20 02:36:06;;;;;;;9.90;4.87;;;;;;;7.16;58.74;101453.63;5031410;28;20073;-80
2022/04/20 02:38:31;;;;;;;7.23;4.90;;;;;;;7.22;57.89;101456.47;5039560;28;20037;-82
2022/04/20 02:40:57;;;;;;;6.57;4.77;;;;;;;7.16;58.73;101454.44;5055415;28;20046;-81
2022/04/20 02:43:22;;;;;;;6.83;4.60;;;;;;;7.18;58.93;101463.22;5030966;28;20037;-81
2022/04/20 02:45:48;;;;;;;6.63;4.67;;;;;;;7.16;58.63;101459.03;5023942;28;20033;-81
2022/04/20 02:48:14;;;;;;;7.27;4.80;;;;;;;7.15;58.67;101462.72;5023785;28;20038;-80
2022/04/20 02:50:39;;;;;;;9.23;5.00;;;;;;;7.09;59.56;101458.88;5031127;28;20042;-83
2022/04/20 02:53:05;;;;;;;7.77;4.80;;;;;;;7.12;58.00;101452.28;5038737;28;20056;-81
2022/04/20 02:55:31;;;;;;;7.13;4.87;;;;;;;7.10;58.78;101458.69;5023641;28;20053;-81
2022/04/20 02:57:56;;;;;;;7.33;5.00;;;;;;;7.09;59.10;101472.34;5038322;28;20034;-82
2022/04/20 03:00:22;;;;;;;7.57;4.97;;;;;;;7.10;58.70;101472.16;5024199;28;20144;-82
2022/04/20 03:02:48;;;;;;;7.63;4.80;;;;;;;7.10;58.44;101471.34;5023606;28;20048;-81
2022/04/20 03:05:13;;;;;;;8.03;4.80;;;;;;;7.10;58.09;101466.78;5038593;28;20041;-81
2022/04/20 03:07:39;;;;;;;7.63;5.03;;;;;;;7.05;59.32;101476.41;5023613;28;20041;-81
2022/04/20 03:10:04;;;;;;;6.97;4.90;;;;;;;6.96;60.03;101470.19;5039023;28;21266;-80
2022/04/20 03:12:30;;;;;;;6.77;4.77;;;;;;;6.96;59.28;101480.13;5023864;28;20087;-82
2022/04/20 03:14:55;;;;;;;6.30;4.70;;;;;;;6.96;58.90;101472.03;5023414;28;21434;-81
2022/04/20 03:17:25;;;;;;;8.57;5.13;;;;;;;6.89;59.42;101470.03;5027054;28;20555;-79
2022/04/20 03:19:51;;;;;;;8.33;4.77;;;;;;;6.93;58.88;101475.91;5027528;28;20180;-81
2022/04/20 03:22:17;;;;;;;7.77;4.90;;;;;;;6.85;59.67;101474.06;5027519;28;20033;-81
2022/04/20 03:24:42;;;;;;;6.77;4.73;;;;;;;6.84;59.17;101460.78;5059194;28;20560;-82
2022/04/20 03:27:08;;;;;;;7.20;4.83;;;;;;;6.81;58.95;101472.72;5042297;28;20299;-82
2022/04/20 03:29:34;;;;;;;6.57;4.77;;;;;;;6.82;59.17;101479.81;5059652;28;20029;-83
2022/04/20 03:32:08;;;;;;;7.10;4.80;;;;;;;6.83;58.65;101486.88;5041209;28;20846;-81
2022/04/20 03:34:33;;;;;;;6.40;4.97;;;;;;;6.82;59.27;101489.75;5027675;28;20052;-81
2022/04/20 03:36:59;;;;;;;7.07;4.87;;;;;;;6.82;59.09;101484.38;5027336;28;20503;-81
2022/04/20 03:39:24;;;;;;;7.93;5.00;;;;;;;6.79;59.53;101496.31;5026314;28;20033;-81
2022/04/20 03:41:49;;;;;;;9.37;4.90;;;;;;;6.80;59.03;101487.25;5027342;28;20076;-81
2022/04/20 03:44:15;;;;;;;8.20;5.33;;;;;;;6.75;59.52;101486.91;5026830;28;20041;-81
2022/04/20 03:46:40;;;;;;;6.83;4.87;;;;;;;6.71;59.84;101497.16;5026695;28;20035;-80
2022/04/20 03:49:05;;;;;;;6.50;4.93;;;;;;;6.72;59.47;101490.78;5025404;28;20047;-82
2022/04/20 03:51:32;;;;;;;8.90;5.00;;;;;;;6.72;59.48;101498.03;5025669;28;20034;-81
2022/04/20 03:53:58;;;;;;;7.33;4.93;;;;;;;6.71;59.71;101493.66;5026188;28;20128;-80
2022/04/20 03:56:23;;;;;;;7.10;5.07;;;;;;;6.65;59.62;101483.53;5033500;28;20041;-80
2022/04/20 03:58:48;;;;;;;7.53;5.40;;;;;;;6.69;59.50;101488.44;5026470;28;20045;-81
2022/04/20 04:01:14;;;;;;;7.17;5.40;;;;;;;6.67;59.75;101485.06;5025865;28;20041;-80
2022/04/20 04:03:40;;;;;;;8.87;5.10;;;;;;;6.67;59.78;101492.31;5026156;28;20039;-81
2022/04/20 04:06:06;;;;;;;8.50;4.93;;;;;;;6.65;59.74;101492.47;5025503;28;20040;-81
2022/04/20 04:08:31;;;;;;;7.33;5.50;;;;;;;6.61;60.29;101496.53;5033989;28;20041;-80
2022/04/20 04:10:57;;;;;;;7.77;5.43;;;;;;;6.49;60.41;101479.03;5058783;28;20048;-81
2022/04/20 04:13:22;;;;;;;7.27;5.00;;;;;;;6.57;59.66;101495.19;5027101;28;20041;-81
2022/04/20 04:15:49;;;;;;;8.17;5.30;;;;;;;6.52;60.40;101495.66;5057737;28;20080;-80
2022/04/20 04:18:15;;;;;;;8.87;5.43;;;;;;;6.47;60.86;101500.72;5026028;28;20088;-81
2022/04/20 04:20:40;;;;;;;9.77;5.20;;;;;;;6.46;60.78;101498.19;5026826;28;21528;-82
2022/04/20 04:23:06;;;;;;;9.00;5.10;;;;;;;6.41;61.14;101499.53;5025713;28;20175;-81
2022/04/20 04:25:32;;;;;;;10.63;5.23;;;;;;;6.36;61.18;101498.38;5026284;28;20044;-81
2022/04/20 04:27:57;;;;;;;7.27;5.40;;;;;;;6.32;61.21;101503.22;5024749;28;20037;-81
2022/04/20 04:30:22;;;;;;;8.83;5.43;;;;;;;6.28;61.42;101498.38;5026358;28;20243;-82
2022/04/20 04:32:48;;;;;;;8.60;5.50;;;;;;;6.24;61.66;101497.84;5057835;28;20044;-83
2022/04/20 04:35:14;;;;;;;11.40;5.47;;;;;;;6.22;61.32;101502.56;5026548;28;20075;-81
2022/04/20 04:37:40;;;;;;;7.80;5.40;;;;;;;6.20;61.61;101508.13;5025897;28;20114;-83
2022/04/20 04:40:06;;;;;;;10.83;5.07;;;;;;;6.18;62.10;101512.81;5026045;28;20435;-82
2022/04/20 04:42:32;;;;;;;9.20;5.07;;;;;;;6.21;61.81;101515.16;5041123;28;20393;-82
2022/04/20 04:50:26;;;;;;;7.88;5.13;;;;;;;6.18;62.16;101518.19;5025374;28;20083;-82
2022/04/20 04:52:51;;;;;;;12.23;5.50;;;;;;;6.11;61.84;101502.91;5032267;28;20512;-82
2022/04/20 04:55:17;;;;;;;9.63;5.60;;;;;;;6.17;62.40;101515.69;5032785;28;20099;-81
2022/04/20 04:57:42;;;;;;;7.70;5.43;;;;;;;6.24;61.93;101525.63;5025089;28;20504;-82
2022/04/20 05:00:08;;;;;;;7.53;5.30;;;;;;;6.26;61.89;101530.84;5025809;28;20068;-81
2022/04/20 05:02:33;;;;;;;9.80;5.23;;;;;;;6.28;61.66;101525.28;5025377;28;20184;-81
2022/04/20 05:04:59;;;;;;;7.20;5.27;;;;;;;6.33;62.05;101528.31;5025058;28;20046;-81
2022/04/20 05:07:24;;;;;;;10.27;5.20;;;;;;;6.35;61.99;101540.59;5057576;28;20037;-81
2022/04/20 05:09:49;;;;;;;11.97;5.50;;;;;;;6.41;61.82;101544.47;5057645;28;20045;-81
2022/04/20 05:12:14;;;;;;;9.20;5.40;;;;;;;6.42;61.72;101543.47;5025061;28;20041;-82
2022/04/20 05:14:40;;;;;;;8.03;5.60;;;;;;;6.45;62.02;101542.28;5057471;28;20074;-81
2022/04/20 05:17:05;;;;;;;8.17;5.27;;;;;;;6.47;62.24;101551.03;5025738;28;20052;-81
2022/04/20 05:19:31;;;;;;;9.73;5.67;;;;;;;6.53;61.91;101547.69;5025063;28;20040;-82
2022/04/20 05:21:57;;;;;;;7.80;5.47;;;;;;;6.49;61.84;101540.94;5025778;28;20049;-82
2022/04/20 05:24:22;;;;;;;8.33;5.37;;;;;;;6.61;61.38;101554.91;5057183;28;20051;-81
2022/04/20 05:26:48;;;;;;;9.43;5.63;;;;;;;6.66;61.17;101555.25;5025338;28;20462;-82
2022/04/20 05:29:13;;;;;;;8.20;5.33;;;;;;;6.75;60.16;101556.94;5025326;28;20151;-79
2022/04/20 05:31:39;;;;;;;8.47;5.50;;;;;;;6.86;60.43;101559.28;5039980;28;20401;-81
2022/04/20 05:34:04;;;;;;;10.17;5.50;;;;;;;6.86;59.63;101550.34;5024849;28;20033;-82
2022/04/20 05:41:39;;;;;;;10.77;5.60;;;;;;;6.98;61.03;101565.16;5024872;28;20049;-81
2022/04/20 05:42:00;;;;;;;11.13;5.33;;;;;;;7.14;59.39;101558.91;5051560;28;20577;-81
2022/04/20 05:44:25;;;;;;;9.17;5.40;;;;;;;7.20;59.43;101555.50;5024911;28;20124;-81
2022/04/20 05:46:51;;;;;;;10.93;5.53;;;;;;;7.66;58.72;101554.03;5027353;28;20366;-82
2022/04/20 05:49:16;;;;;;;7.17;5.03;;;;;;;8.45;56.95;101559.34;5024703;28;20033;-81
2022/04/20 05:51:42;;;;;;;8.93;5.40;;;;;;;9.08;55.73;101556.41;5025022;28;20046;-82
2022/04/20 05:54:07;;;;;;;9.93;5.47;;;;;;;9.73;52.92;101548.59;5024728;28;20469;-80
2022/04/20 05:56:32;;;;;;;8.77;5.20;;;;;;;9.84;51.42;101552.69;5025028;28;20400;-81
2022/04/20 05:58:58;;;;;;;9.40;5.50;;;;;;;10.00;52.50;101549.75;5024766;28;20033;-79
2022/04/20 06:01:26;;;;;;;10.27;5.30;;;;;;;10.06;50.72;101551.69;5039862;28;20391;-80
2022/04/20 06:03:51;;;;;;;6.73;5.03;;;;;;;10.30;51.22;101549.66;5023908;28;20488;-82
2022/04/20 06:06:18;;;;;;;9.23;5.47;;;;;;;10.43;50.00;101551.66;5031672;28;20037;-80
2022/04/20 06:08:44;;;;;;;9.90;5.20;;;;;;;10.60;49.33;101555.78;5024668;28;20037;-81
2022/04/20 06:11:11;;;;;;;9.13;5.10;;;;;;;10.71;50.70;101553.59;5025042;28;20041;-81
2022/04/20 06:13:36;;;;;;;10.20;5.50;;;;;;;10.80;48.92;101547.84;5025479;28;20041;-82
2022/04/20 06:16:05;;;;;;;9.33;5.10;;;;;;;10.97;48.09;101544.84;5055296;28;20479;-82
2022/04/20 06:18:31;;;;;;;8.80;5.13;;;;;;;10.69;47.56;101551.09;5024350;28;20583;-80
2022/04/20 06:20:56;;;;;;;7.73;4.77;;;;;;;10.51;49.62;101546.13;5024703;28;20071;-80
2022/04/20 06:23:22;;;;;;;6.77;4.80;;;;;;;10.58;50.66;101547.03;5023572;28;20504;-81
2022/04/20 06:25:48;;;;;;;8.77;5.00;;;;;;;10.29;49.85;101539.84;5039839;28;20034;-81
2022/04/20 06:28:13;;;;;;;9.60;5.20;;;;;;;10.16;51.33;101554.09;5024538;28;20044;-82
2022/04/20 06:30:39;;;;;;;6.90;4.73;;;;;;;10.17;51.23;101555.75;5039160;28;20068;-81
2022/04/20 06:33:04;;;;;;;9.93;5.00;;;;;;;9.65;51.12;101549.53;5025843;28;20088;-81
2022/04/20 06:35:30;;;;;;;8.73;5.50;;;;;;;9.62;52.24;101555.31;5056608;28;20124;-82
2022/04/20 06:37:55;;;;;;;9.10;4.70;;;;;;;9.62;53.07;101556.13;5056244;28;20141;-81
2022/04/20 06:40:20;;;;;;;7.37;5.30;;;;;;;9.80;53.75;101555.78;5023804;28;20128;-81
2022/04/20 06:42:46;;;;;;;9.60;5.17;;;;;;;10.02;53.41;101565.78;5023646;28;20116;-81
2022/04/20 06:45:11;;;;;;;7.57;5.17;;;;;;;10.07;52.45;101566.91;5024365;28;20112;-81
2022/04/20 06:47:36;;;;;;;7.27;5.17;;;;;;;10.05;51.73;101568.97;5055924;28;20044;-81
2022/04/20 06:50:02;;;;;;;8.97;5.23;;;;;;;10.36;52.60;101557.00;5025517;28;20531;-81
2022/04/20 07:00:39;;;;;;;10.27;5.10;;;;;;;10.45;51.00;101563.16;5027951;28;20076;-81
2022/04/20 07:03:09;;;;;;;7.13;4.70;;;;;;;10.49;51.72;101561.75;5059570;28;20128;-81
2022/04/20 07:05:35;;;;;;;7.97;5.30;;;;;;;10.66;51.59;101565.00;5028261;28;20065;-81
2022/04/20 07:08:01;;;;;;;8.17;5.30;;;;;;;10.48;50.29;101562.78;5027235;28;20160;-80
2022/04/20 07:10:27;;;;;;;9.53;5.33;;;;;;;10.56;52.01;101562.63;5028311;28;20056;-80
2022/04/20 07:12:52;;;;;;;7.03;5.30;;;;;;;10.72;52.47;101558.81;5035440;28;20087;-83
2022/04/20 07:15:18;;;;;;;11.17;5.70;;;;;;;10.95;51.90;101563.19;5043172;28;20493;-80
2022/04/20 07:17:43;;;;;;;8.83;5.33;;;;;;;10.94;50.87;101565.03;5043107;28;20049;-81
2022/04/20 07:20:17;;;;;;;9.03;5.27;;;;;;;11.09;50.86;101566.84;5026902;28;20040;-81
2022/04/20 07:22:53;;;;;;;8.45;5.20;;;;;;;11.11;50.23;101562.03;5027464;28;20472;-80
2022/04/20 07:25:19;;;;;;;10.20;5.47;;;;;;;11.28;51.38;101563.41;5027462;28;20043;-80
2022/04/20 07:27:48;;;;;;;8.67;5.00;;;;;;;11.47;52.59;101567.28;5025460;28;20036;-81
2022/04/20 07:30:14;;;;;;;6.87;5.00;;;;;;;11.55;50.66;101558.16;5027751;28;20481;-80
2022/04/20 07:32:40;;;;;;;10.87;5.17;;;;;;;11.60;49.65;101555.66;5026450;28;20040;-80
2022/04/20 07:35:05;;;;;;;7.03;4.87;;;;;;;11.65;50.10;101566.78;5027111;28;20098;-81
2022/04/20 07:37:31;;;;;;;8.17;4.90;;;;;;;11.74;49.52;101566.59;5027599;28;20472;-81
2022/04/20 07:39:57;;;;;;;7.53;4.73;;;;;;;11.91;50.74;101567.94;5027358;28;20357;-80
2022/04/20 07:42:23;;;;;;;7.70;4.90;;;;;;;11.92;49.21;101572.28;5026707;28;20175;-80
2022/04/20 07:44:48;;;;;;;8.50;4.77;;;;;;;12.01;48.81;101581.16;5027519;28;20374;-81
2022/04/20 07:47:13;;;;;;;9.00;5.10;;;;;;;11.95;47.92;101582.81;5027681;28;20045;-82
2022/04/20 07:52:23;;;;;;;8.27;5.33;;;;;;;11.47;47.65;101591.69;5054124;28;20739;-82
2022/04/20 07:54:48;;;;;;;6.97;4.67;;;;;;;11.74;49.94;101589.13;5042222;28;20052;-81
2022/04/20 07:57:15;;;;;;;6.73;4.60;;;;;;;11.89;51.10;101575.41;5027416;28;20033;-79
2022/04/20 07:59:41;;;;;;;9.97;5.00;;;;;;;11.92;48.06;101583.16;5059230;28;20033;-79
2022/04/20 08:02:07;;;;;;;8.90;4.93;;;;;;;12.08;49.91;101583.88;5026701;28;20108;-79
2022/04/20 08:04:32;;;;;;;8.10;5.13;;;;;;;12.19;48.86;101585.19;5026951;28;20037;-81
2022/04/20 08:06:58;;;;;;;6.50;4.77;;;;;;;12.22;48.56;101585.59;5026890;28;20033;-81
2022/04/20 08:09:24;;;;;;;10.93;4.90;;;;;;;12.33;50.24;101587.72;5027026;28;20047;-79
2022/04/20 08:11:50;;;;;;;10.07;4.63;;;;;;;12.30;48.18;101593.56;5026452;28;20447;-83
2022/04/20 08:14:16;;;;;;;9.50;4.60;;;;;;;12.20;47.60;101592.25;5026188;28;20106;-81
2022/04/20 08:16:43;;;;;;;10.37;4.70;;;;;;;12.27;47.89;101588.53;5025921;28;20062;-83
2022/04/20 08:19:09;;;;;;;7.33;4.80;;;;;;;12.39;47.99;101590.66;5033142;28;20473;-81
2022/04/20 08:21:35;;;;;;;12.13;5.00;;;;;;;12.25;45.60;101589.78;5041142;28;20041;-81
2022/04/20 08:24:00;;;;;;;9.40;5.10;;;;;;;12.29;46.48;101591.03;5040545;28;20130;-80
2022/04/20 08:26:26;;;;;;;6.37;4.67;;;;;;;12.39;46.57;101596.06;5026524;28;20041;-81
2022/04/20 08:28:51;;;;;;;6.70;4.60;;;;;;;12.36;45.59;101593.78;5026359;28;20053;-85
2022/04/20 08:31:17;;;;;;;9.23;4.80;;;;;;;12.45;48.55;101589.84;5026366;28;20048;-86
2022/04/20 08:33:43;;;;;;;7.43;4.60;;;;;;;12.48;44.49;101594.84;5025727;28;20044;-82
2022/04/20 08:36:11;;;;;;;7.00;4.70;;;;;;;12.69;47.74;101593.84;5026619;28;20103;-82
2022/04/20 08:38:38;;;;;;;7.87;4.40;;;;;;;12.84;47.68;101596.38;5025935;28;20033;-80
2022/04/20 08:41:04;;;;;;;7.50;4.30;;;;;;;12.85;45.44;101578.97;5026164;28;20127;-81
2022/04/20 08:43:31;;;;;;;8.50;4.63;;;;;;;12.98;44.28;101594.47;5026089;28;20049;-80
2022/04/20 08:46:02;;;;;;;9.47;4.90;;;;;;;13.08;44.55;101599.50;5025715;28;20041;-80
2022/04/20 08:48:27;;;;;;;6.83;4.73;;;;;;;12.74;43.84;101596.78;5025044;28;20041;-80
2022/04/20 08:50:53;;;;;;;9.77;4.73;;;;;;;12.69;44.58;101595.72;5028255;28;20354;-79
2022/04/20 08:53:20;;;;;;;11.93;4.80;;;;;;;12.90;46.85;101592.81;5025863;28;20594;-79
2022/04/20 08:55:46;;;;;;;8.00;4.83;;;;;;;13.06;45.00;101582.56;5026111;28;20084;-79
2022/04/20 08:58:12;;;;;;;7.90;4.83;;;;;;;12.95;43.31;101587.56;5025944;28;20044;-81
2022/04/20 09:00:37;;;;;;;8.53;4.60;;;;;;;13.01;42.19;101588.63;5027835;28;20037;-79
2022/04/20 09:03:03;;;;;;;13.90;5.53;;;;;;;13.25;45.80;101587.13;5025593;28;20354;-79
2022/04/20 09:05:32;;;;;;;7.87;5.30;;;;;;;13.14;41.70;101588.59;5025989;28;20725;-82
2022/04/20 09:07:58;;;;;;;8.67;5.07;;;;;;;13.03;42.24;101581.09;5025668;28;20028;-81
2022/04/20 09:10:24;;;;;;;8.50;4.87;;;;;;;13.14;43.30;101582.34;5008058;28;20037;-79
2022/04/20 09:13:12;;;;;;;7.07;4.70;;;;;;;13.13;43.40;101578.75;5024603;28;20894;-80
2022/04/20 09:15:40;;;;;;;7.70;5.00;;;;;;;13.24;43.03;101582.72;5040363;28;20030;-79
2022/04/20 09:18:07;;;;;;;6.47;4.40;;;;;;;13.61;46.56;101576.81;5025307;28;20046;-81
2022/04/20 09:20:34;;;;;;;8.37;4.90;;;;;;;13.49;41.65;101579.34;5032135;28;20036;-79
2022/04/20 09:23:05;;;;;;;8.87;5.13;;;;;;;13.76;42.80;101573.84;5022270;28;20044;-80
2022/04/20 09:25:36;;;;;;;8.47;5.10;;;;;;;13.82;43.23;101571.09;5027695;28;20756;-86
2022/04/20 09:28:03;;;;;;;8.43;4.70;;;;;;;13.91;42.91;101573.56;5024926;28;20571;-80
2022/04/20 09:30:37;;;;;;;9.73;4.63;;;;;;;13.94;41.87;101570.41;5024689;28;20092;-79
2022/04/20 09:33:06;;;;;;;8.75;4.40;;;;;;;13.65;41.62;101570.75;5040141;28;21333;-81
2022/04/20 09:35:50;;;;;;;8.90;4.50;;;;;;;13.83;43.12;101570.06;5024481;28;20049;-81
2022/04/20 09:38:22;;;;;;;6.55;4.07;;;;;;;13.90;41.47;101569.16;5025349;28;20619;-82
2022/04/20 09:40:49;;;;;;;6.37;4.03;;;;;;;13.88;40.82;101555.78;5025285;28;20365;-80
2022/04/20 09:43:39;;;;;;;7.73;4.10;;;;;;;14.03;42.03;101569.09;5024339;28;21511;-78
2022/04/20 09:49:04;;;;;;;5.97;4.07;;;;;;;14.04;40.77;101559.06;5025523;28;20061;-83
2022/04/20 09:51:36;;;;;;;4.20;3.67;;;;;;;13.84;40.04;101554.53;5032682;28;20052;-82
2022/04/20 09:54:01;;;;;;;5.83;3.90;;;;;;;14.04;40.99;101550.88;5024600;28;20034;-80
2022/04/20 09:56:27;;;;;;;6.50;3.80;;;;;;;14.17;44.54;101553.50;5024888;28;20092;-80
2022/04/20 09:59:04;;;;;;;5.33;3.33;;;;;;;14.16;39.26;101551.88;5024510;28;20462;-84
2022/04/20 10:01:34;;;;;;;6.67;3.87;;;;;;;14.16;41.95;101560.03;5024365;28;20128;-83
2022/04/20 10:04:02;;;;;;;7.10;3.70;;;;;;;13.93;40.19;101558.69;5022517;28;20041;-82
2022/04/20 10:06:28;;;;;;;12.60;4.30;;;;;;;13.83;41.59;101537.38;5024627;28;20613;-81
2022/04/20 10:08:54;;;;;;;6.27;3.60;;;;;;;14.02;41.53;101543.75;5024616;28;20025;-79
2022/04/20 10:11:22;;;;;;;4.63;3.77;;;;;;;14.26;44.27;101546.75;5023676;28;20424;-79
2022/04/20 10:16:05;;;;;;;4.77;3.60;;;;;;;14.22;41.44;101540.06;5024218;28;20660;-78
2022/04/20 10:16:38;;;;;;;4.33;3.70;;;;;;;14.43;43.27;101535.31;5024473;28;20147;-80
2022/04/20 10:19:07;;;;;;;7.17;4.10;;;;;;;14.36;40.99;101540.84;5055597;28;20143;-78
2022/04/20 10:21:43;;;;;;;4.63;3.83;;;;;;;14.51;41.93;101526.91;5024401;28;20489;-80
2022/04/20 10:24:14;;;;;;;6.43;3.47;;;;;;;14.55;39.58;101524.53;5024137;28;20144;-80
2022/04/20 10:26:40;;;;;;;4.43;3.40;;;;;;;14.45;39.16;101522.31;5024060;28;20029;-81
2022/04/20 10:29:37;;;;;;;7.97;4.40;;;;;;;14.44;38.09;101515.19;5056130;28;21970;-82
2022/04/20 10:32:09;;;;;;;3.33;3.00;;;;;;;14.50;41.35;101515.13;5021849;28;20049;-81
2022/04/20 10:34:36;;;;;;;7.27;4.30;;;;;;;14.48;40.34;101517.28;5024334;28;20041;-79
2022/04/20 10:37:05;;;;;;;8.13;4.10;;;;;;;14.52;42.51;101517.63;5024253;28;20037;-79
2022/04/20 10:39:41;;;;;;;6.33;4.17;;;;;;;14.60;41.93;101509.19;5023719;28;20071;-82
2022/04/20 10:42:14;;;;;;;8.07;4.60;;;;;;;14.59;41.40;101514.88;5023808;28;20571;-80
2022/04/20 10:45:03;;;;;;;6.03;4.40;;;;;;;14.52;40.85;101518.50;5024568;28;20755;-82
2022/04/20 10:47:36;;;;;;;5.97;4.70;;;;;;;14.62;42.50;101512.53;5038691;28;20657;-79
2022/04/20 10:50:20;;;;;;;8.93;4.57;;;;;;;14.66;42.57;101512.94;5024544;28;20029;-82
2022/04/20 10:52:59;;;;;;;6.30;3.90;;;;;;;14.68;41.86;101517.13;5024978;28;20061;-80
2022/04/20 10:55:44;;;;;;;4.77;4.13;;;;;;;14.78;42.32;101505.72;5023675;28;20951;-83
2022/04/20 10:58:21;;;;;;;6.90;4.70;;;;;;;14.84;42.97;101504.81;5023946;28;20036;-80
2022/04/20 11:00:46;;;;;;;6.73;4.30;;;;;;;14.93;42.19;101497.19;5055693;28;20491;-81
2022/04/20 11:03:12;;;;;;;7.10;4.60;;;;;;;14.98;40.44;101500.06;5023678;28;20041;-81
2022/04/20 11:05:53;;;;;;;4.57;4.00;;;;;;;14.90;40.45;101497.63;5023548;28;20034;-78
2022/04/20 11:08:20;;;;;;;8.57;4.37;;;;;;;14.83;40.35;101497.69;5023911;28;20473;-80
2022/04/20 11:19:48;;;;;;;6.32;4.78;;;;;;;15.36;41.38;101485.38;5023944;28;20153;-80
2022/04/20 11:22:14;;;;;;;8.17;4.67;;;;;;;15.58;41.71;101478.59;5023897;28;20515;-81
2022/04/20 11:24:40;;;;;;;6.57;4.30;;;;;;;15.41;39.55;101479.22;5023046;28;20481;-80
2022/04/20 11:27:06;;;;;;;5.37;4.40;;;;;;;15.68;41.42;101470.72;5038960;28;20037;-81
2022/04/20 11:29:32;;;;;;;7.90;4.37;;;;;;;15.96;42.26;101472.84;5023984;28;20040;-82
2022/04/20 11:32:03;;;;;;;5.20;3.60;;;;;;;16.09;38.44;101476.44;5038667;28;20059;-80
2022/04/20 11:34:33;;;;;;;6.67;4.30;;;;;;;16.19;38.18;101482.19;5023762;28;20079;-80
2022/04/20 11:37:02;;;;;;;4.90;3.97;;;;;;;16.23;37.95;101468.91;5025799;28;20045;-79
2022/04/20 11:39:29;;;;;;;7.07;3.80;;;;;;;16.37;39.07;101479.38;5026832;28;20431;-82
2022/04/20 11:42:05;;;;;;;6.17;3.83;;;;;;;16.59;39.31;101465.16;5027423;28;20057;-80
2022/04/20 11:44:32;;;;;;;4.40;4.00;;;;;;;16.81;37.92;101461.78;5027034;28;20107;-82
2022/04/20 11:47:02;;;;;;;5.27;3.73;;;;;;;17.17;41.92;101457.97;5027033;28;20368;-83
2022/04/20 11:49:39;;;;;;;5.10;3.57;;;;;;;17.08;37.15;101450.38;5027078;28;20079;-80
2022/04/20 11:52:09;;;;;;;4.33;3.60;;;;;;;17.11;35.75;101458.94;5027146;28;20037;-81
2022/04/20 11:54:36;;;;;;;6.03;3.80;;;;;;;16.95;35.98;101448.75;5026568;28;20171;-81
2022/04/20 11:57:03;;;;;;;5.57;4.30;;;;;;;17.08;38.29;101456.69;5027183;28;21426;-84
2022/04/20 11:59:29;;;;;;;8.77;4.20;;;;;;;17.29;42.44;101441.53;5027133;28;20038;-77
2022/04/20 12:01:55;;;;;;;5.97;3.77;;;;;;;17.35;37.96;101445.19;5026545;28;20413;-77